This is the latest recevied weather packets stored in our database for station/object DL9TPA-1. If no packets are shown the sender has not sent any weather packets the latest 10 day(s).
| Time | Temp. | Humidity | Pressure | Rain* | Wind** | Luminosity | Snow |
|---|---|---|---|---|---|---|---|
| 1777995266 | 18.89° C | 72% | 1006 hPa | 0 mm | - | - | - |
| 1777994666 | 18.89° C | 71% | 1006.2 hPa | 0 mm | - | - | - |
| 1777994063 | 19.44° C | 70% | 1006.2 hPa | 0 mm | - | - | - |
| 1777993461 | 20° C | 70% | 1006.4 hPa | 0 mm | - | - | - |
| 1777992859 | 20° C | 70% | 1006.4 hPa | 0 mm | - | - | - |
| 1777992257 | 21.11° C | 67% | 1006.4 hPa | 0 mm | - | - | - |
| 1777991652 | 21.11° C | 67% | 1006.4 hPa | 0 mm | - | - | - |
| 1777991050 | 21.67° C | 66% | 1006.4 hPa | 0 mm | - | - | - |
| 1777990449 | 21.67° C | 64% | 1006.6 hPa | 0 mm | - | - | - |
| 1777989847 | 22.22° C | 66% | 1006.7 hPa | 0 mm | - | - | - |
| 1777989245 | 22.22° C | 68% | 1006.7 hPa | 0 mm | - | - | - |
| 1777988642 | 21.67° C | 69% | 1006.8 hPa | 0 mm | - | - | - |
| 1777988042 | 21.67° C | 71% | 1006.8 hPa | 0 mm | - | - | - |
| 1777987440 | 21.67° C | 71% | 1006.8 hPa | 0 mm | - | - | - |
| 1777986839 | 21.11° C | 73% | 1006.8 hPa | 0 mm | - | - | - |
| 1777986235 | 21.11° C | 74% | 1007 hPa | 0 mm | - | - | - |
| 1777985633 | 20° C | 76% | 1007.1 hPa | 0 mm | - | - | - |
| 1777985033 | 18.89° C | 79% | 1007.1 hPa | 0 mm | - | - | - |
| 1777984429 | 18.89° C | 78% | 1007.2 hPa | 0 mm | - | - | - |
| 1777983829 | 18.89° C | 76% | 1007.3 hPa | 0 mm | - | - | - |
| 1777983226 | 19.44° C | 76% | 1007.5 hPa | 0 mm | - | - | - |
| 1777982624 | 19.44° C | 76% | 1007.5 hPa | 0 mm | - | - | - |
| 1777982022 | 19.44° C | 76% | 1007.5 hPa | 0 mm | - | - | - |
| 1777981419 | 19.44° C | 78% | 1007.6 hPa | 0 mm | - | - | - |
| 1777980820 | 18.33° C | 80% | 1007.6 hPa | 0 mm | - | - | - |
* Rain latest hour (hover to see other rain measurements)
** Current wind speed in m/s (hover to see current wind gust speed)